createdAt,value
2018-04-22T00:01:22.478Z,5.60
2018-04-22T00:03:49.210Z,6.30
2018-04-22T00:06:15.909Z,4.60
2018-04-22T00:08:42.613Z,5.73
2018-04-22T00:11:09.346Z,6.00
2018-04-22T00:13:36.044Z,5.80
2018-04-22T00:16:02.802Z,6.10
2018-04-22T00:18:29.526Z,5.43
2018-04-22T00:20:56.243Z,5.57
2018-04-22T00:23:22.957Z,5.50
2018-04-22T00:25:49.704Z,5.43
2018-04-22T00:28:16.394Z,5.73
2018-04-22T00:30:43.167Z,5.63
2018-04-22T00:33:09.882Z,5.30
2018-04-22T00:35:36.613Z,5.57
2018-04-22T00:38:03.318Z,5.50
2018-04-22T00:40:30.029Z,5.50
2018-04-22T00:42:56.807Z,6.10
2018-04-22T00:45:23.502Z,5.50
2018-04-22T00:47:50.260Z,5.60
2018-04-22T00:50:16.986Z,5.50
2018-04-22T00:52:43.741Z,5.07
2018-04-22T00:55:10.442Z,5.50
2018-04-22T00:57:37.171Z,5.13
2018-04-22T01:00:03.862Z,5.17
2018-04-22T01:02:30.581Z,5.53
2018-04-22T01:04:57.345Z,5.23
2018-04-22T01:07:24.083Z,5.20
2018-04-22T01:09:50.780Z,5.93
2018-04-22T01:18:04.945Z,5.77
2018-04-22T01:23:23.681Z,5.73
2018-04-22T01:25:50.400Z,6.03
2018-04-22T01:28:17.096Z,5.27
2018-04-22T01:30:43.835Z,5.70
2018-04-22T01:33:10.520Z,5.80
2018-04-22T01:35:37.220Z,5.40
2018-04-22T01:38:03.935Z,6.13
2018-04-22T01:40:30.638Z,6.00
2018-04-22T01:42:57.343Z,5.57
2018-04-22T01:45:24.067Z,6.10
2018-04-22T01:47:50.759Z,5.57
2018-04-22T01:50:17.475Z,6.93
2018-04-22T01:52:44.236Z,6.27
2018-04-22T01:55:10.939Z,5.87
2018-04-22T01:57:37.658Z,6.20
2018-04-22T02:00:04.370Z,6.20
2018-04-22T02:02:31.107Z,6.13
2018-04-22T02:04:57.811Z,6.30
2018-04-22T02:07:24.502Z,6.33
2018-04-22T02:09:51.244Z,6.40
2018-04-22T02:12:17.960Z,6.27
2018-04-22T02:14:44.669Z,6.20
2018-04-22T02:17:11.397Z,6.63
2018-04-22T02:19:38.126Z,6.20
2018-04-22T02:22:04.849Z,6.00
2018-04-22T02:24:31.601Z,6.77
2018-04-22T02:26:58.298Z,7.27
2018-04-22T02:29:25.078Z,7.40
2018-04-22T02:31:51.815Z,7.90
2018-04-22T02:34:18.520Z,7.27
2018-04-22T02:36:45.232Z,7.30
2018-04-22T02:39:11.977Z,6.70
2018-04-22T02:41:38.690Z,7.20
2018-04-22T02:44:05.398Z,7.37
2018-04-22T02:46:32.146Z,7.20
2018-04-22T02:48:58.869Z,7.20
2018-04-22T02:51:25.584Z,7.60
2018-04-22T02:53:52.337Z,6.97
2018-04-22T02:56:19.021Z,8.13
2018-04-22T02:58:45.726Z,7.53
2018-04-22T03:01:12.437Z,7.20
2018-04-22T03:03:39.157Z,7.33
2018-04-22T03:06:05.919Z,7.23
2018-04-22T03:08:32.615Z,8.00
2018-04-22T03:10:59.334Z,7.97
2018-04-22T03:13:26.065Z,7.20
2018-04-22T03:15:52.772Z,7.40
2018-04-22T03:18:19.492Z,8.17
2018-04-22T03:20:46.226Z,7.03
2018-04-22T03:23:12.930Z,7.17
2018-04-22T03:25:39.629Z,7.73
2018-04-22T03:28:06.354Z,7.10
2018-04-22T03:30:33.052Z,7.07
2018-04-22T03:32:59.789Z,7.93
2018-04-22T03:35:26.512Z,7.30
2018-04-22T03:37:53.211Z,7.37
2018-04-22T03:40:19.959Z,6.77
2018-04-22T03:42:46.698Z,7.10
2018-04-22T03:45:13.395Z,7.43
2018-04-22T03:47:40.111Z,7.40
2018-04-22T03:50:06.842Z,7.23
2018-04-22T03:52:33.568Z,8.40
2018-04-22T03:55:00.279Z,6.67
2018-04-22T03:57:27.027Z,7.77
2018-04-22T03:59:53.752Z,6.70
2018-04-22T04:02:20.455Z,8.40
2018-04-22T04:04:47.199Z,7.30
2018-04-22T04:07:13.930Z,8.10
2018-04-22T04:09:40.643Z,7.10
2018-04-22T04:12:07.344Z,6.43
2018-04-22T04:14:34.071Z,7.03
2018-04-22T04:17:00.771Z,7.70
2018-04-22T04:19:33.254Z,7.50
2018-04-22T04:22:05.835Z,7.27
2018-04-22T04:24:38.333Z,6.60
2018-04-22T04:27:10.817Z,7.23
2018-04-22T04:29:37.531Z,7.23
2018-04-22T04:32:04.248Z,7.80
2018-04-22T04:34:30.960Z,7.20
2018-04-22T04:36:57.649Z,7.00
2018-04-22T04:39:24.383Z,6.97
2018-04-22T04:41:51.117Z,7.97
2018-04-22T04:44:17.828Z,7.90
2018-04-22T04:46:44.558Z,8.07
2018-04-22T04:49:11.277Z,8.20
2018-04-22T04:51:37.972Z,7.80
2018-04-22T04:54:04.703Z,7.50
2018-04-22T04:56:31.452Z,8.10
2018-04-22T04:58:58.158Z,9.97
2018-04-22T05:01:24.874Z,8.50
2018-04-22T05:03:51.622Z,8.50
2018-04-22T05:06:18.325Z,8.73
2018-04-22T05:17:30.112Z,8.20
2018-04-22T05:19:56.935Z,8.20
2018-04-22T05:22:23.640Z,8.70
2018-04-22T05:24:50.343Z,9.27
2018-04-22T05:27:17.089Z,9.63
2018-04-22T05:29:43.793Z,10.80
2018-04-22T05:32:30.831Z,10.83
2018-04-22T05:35:15.172Z,10.60
2018-04-22T05:38:00.260Z,10.90
2018-04-22T05:43:17.413Z,10.20
2018-04-22T05:45:44.132Z,10.70
2018-04-22T05:48:10.871Z,10.40
2018-04-22T05:50:37.598Z,9.40
2018-04-22T05:53:04.321Z,9.90
2018-04-22T05:55:31.049Z,9.30
2018-04-22T05:57:57.774Z,10.00
2018-04-22T06:00:24.513Z,9.93
2018-04-22T06:02:51.236Z,10.20
2018-04-22T06:05:17.963Z,8.30
2018-04-22T06:07:44.664Z,9.40
2018-04-22T06:10:11.379Z,9.00
2018-04-22T06:12:38.085Z,9.60
2018-04-22T06:15:04.788Z,10.40
2018-04-22T06:17:31.507Z,9.50
2018-04-22T06:19:58.205Z,11.13
2018-04-22T06:22:24.910Z,8.77
2018-04-22T06:24:51.646Z,8.80
2018-04-22T06:27:18.365Z,9.57
2018-04-22T06:29:45.088Z,9.70
2018-04-22T06:32:11.820Z,9.10
2018-04-22T06:34:38.521Z,10.53
2018-04-22T06:37:05.251Z,7.27
2018-04-22T06:39:31.967Z,8.37
2018-04-22T06:41:58.719Z,6.30
2018-04-22T06:44:25.418Z,9.17
2018-04-22T06:46:52.147Z,8.70
2018-04-22T06:49:18.862Z,8.73
2018-04-22T06:51:45.562Z,8.17
2018-04-22T06:54:12.288Z,7.30
2018-04-22T06:56:39.022Z,8.27
2018-04-22T06:59:05.743Z,7.17
2018-04-22T07:01:32.468Z,7.73
2018-04-22T07:03:59.194Z,9.30
2018-04-22T07:06:25.913Z,7.87
2018-04-22T07:08:52.648Z,7.67
2018-04-22T07:11:19.357Z,8.20
2018-04-22T07:13:46.048Z,7.00
2018-04-22T07:16:12.776Z,7.37
2018-04-22T07:18:39.481Z,6.70
2018-04-22T07:21:06.315Z,7.47
2018-04-22T07:23:33.055Z,7.27
2018-04-22T07:25:59.758Z,8.00
2018-04-22T07:28:26.456Z,6.87
2018-04-22T07:33:39.201Z,7.57
2018-04-22T07:36:06.060Z,7.97
2018-04-22T07:38:32.766Z,6.33
2018-04-22T07:40:59.466Z,8.00
2018-04-22T07:43:26.232Z,7.07
2018-04-22T07:45:52.937Z,7.70
2018-04-22T07:48:19.641Z,8.20
2018-04-22T07:50:46.374Z,6.90
2018-04-22T07:53:13.085Z,7.80
2018-04-22T07:55:39.792Z,6.73
2018-04-22T07:58:06.550Z,6.57
2018-04-22T08:00:33.247Z,7.10
2018-04-22T08:02:59.944Z,7.70
2018-04-22T08:05:26.701Z,7.27
2018-04-22T08:07:53.419Z,6.77
2018-04-22T08:10:20.139Z,8.37
2018-04-22T08:12:46.868Z,7.27
2018-04-22T08:15:13.602Z,20.90
2018-04-22T08:20:13.607Z,7.43
2018-04-22T08:22:40.318Z,7.57
2018-04-22T08:25:07.014Z,7.07
2018-04-22T08:27:33.756Z,7.00
2018-04-22T08:30:00.486Z,7.00
2018-04-22T08:32:27.180Z,6.90
2018-04-22T08:34:53.932Z,6.53
2018-04-22T08:37:20.639Z,6.60
2018-04-22T08:39:47.332Z,6.90
2018-04-22T08:42:14.056Z,6.70
2018-04-22T08:44:40.761Z,7.47
2018-04-22T08:47:07.583Z,6.80
2018-04-22T08:49:34.327Z,7.03
2018-04-22T08:52:01.030Z,6.80
2018-04-22T08:54:27.735Z,7.77
2018-04-22T08:56:54.476Z,6.93
2018-04-22T09:08:00.979Z,6.67
2018-04-22T09:10:27.724Z,8.13
2018-04-22T09:12:54.455Z,7.87
2018-04-22T09:15:21.273Z,8.27
2018-04-22T09:17:47.973Z,7.27
2018-04-22T09:20:14.702Z,7.77
2018-04-22T09:22:41.530Z,7.33
2018-04-22T09:25:08.269Z,7.63
2018-04-22T09:27:34.956Z,7.30
2018-04-22T09:30:01.686Z,6.90
2018-04-22T09:32:28.397Z,7.30
2018-04-22T09:34:55.118Z,8.30
2018-04-22T09:37:21.861Z,6.80
2018-04-22T09:39:48.627Z,8.13
2018-04-22T09:42:15.335Z,6.73
2018-04-22T09:44:42.078Z,7.60
2018-04-22T09:47:08.794Z,7.67
2018-04-22T09:49:35.519Z,7.80
2018-04-22T09:52:02.270Z,7.23
2018-04-22T09:54:29.020Z,7.87
2018-04-22T09:56:55.730Z,7.10
2018-04-22T09:59:22.457Z,6.90
2018-04-22T10:01:49.471Z,7.37
2018-04-22T10:04:16.311Z,7.73
2018-04-22T10:06:43.079Z,7.73
2018-04-22T10:09:09.793Z,7.50
2018-04-22T10:11:36.513Z,7.40
2018-04-22T10:14:03.250Z,7.20
2018-04-22T10:16:29.948Z,6.50
2018-04-22T10:18:56.702Z,7.50
2018-04-22T10:21:23.438Z,7.53
2018-04-22T10:23:50.152Z,6.90
2018-04-22T10:26:16.892Z,7.10
2018-04-22T10:28:44.768Z,7.13
2018-04-22T10:31:11.523Z,7.30
2018-04-22T10:33:38.349Z,6.90
2018-04-22T10:36:05.134Z,6.80
2018-04-22T10:38:31.896Z,10.77
2018-04-22T10:40:58.607Z,12.53
2018-04-22T10:43:25.335Z,7.30
2018-04-22T10:45:52.055Z,8.20
2018-04-22T10:48:18.767Z,7.80
2018-04-22T10:50:45.510Z,7.83
2018-04-22T10:53:12.245Z,7.10
2018-04-22T10:55:38.983Z,6.80
2018-04-22T10:58:05.809Z,6.60
2018-04-22T11:00:32.577Z,6.90
2018-04-22T11:02:59.288Z,6.90
2018-04-22T11:05:26.024Z,8.10
2018-04-22T11:07:52.725Z,6.83
2018-04-22T11:10:19.495Z,6.80
2018-04-22T11:12:46.243Z,7.10
2018-04-22T11:15:12.974Z,6.90
2018-04-22T11:17:39.736Z,7.33
2018-04-22T11:20:06.453Z,6.80
2018-04-22T11:22:33.170Z,7.77
2018-04-22T11:24:59.893Z,8.37
2018-04-22T11:27:26.599Z,7.00
2018-04-22T11:29:53.360Z,7.37
2018-04-22T11:32:20.093Z,7.50
2018-04-22T11:34:46.821Z,7.13
2018-04-22T11:37:13.531Z,7.57
2018-04-22T11:39:40.236Z,6.80
2018-04-22T11:42:06.976Z,6.30
2018-04-22T11:44:33.676Z,6.03
2018-04-22T11:47:00.381Z,7.13
2018-04-22T11:49:27.102Z,7.10
2018-04-22T11:51:53.816Z,6.90
2018-04-22T11:54:20.512Z,6.40
2018-04-22T11:56:47.219Z,6.10
2018-04-22T11:59:13.953Z,7.40
2018-04-22T12:01:40.654Z,6.73
2018-04-22T12:04:07.397Z,5.90
2018-04-22T12:06:34.110Z,6.60
2018-04-22T12:09:00.820Z,7.17
2018-04-22T12:11:27.565Z,7.73
2018-04-22T12:13:54.255Z,7.00
2018-04-22T12:16:20.945Z,6.57
2018-04-22T12:18:47.671Z,7.07
2018-04-22T12:21:14.375Z,7.00
2018-04-22T12:23:41.082Z,7.60
2018-04-22T12:26:07.836Z,6.43
2018-04-22T12:28:34.539Z,6.50
2018-04-22T12:31:01.256Z,7.40
2018-04-22T12:33:27.991Z,6.00
2018-04-22T12:35:54.701Z,7.10
2018-04-22T12:38:21.485Z,6.83
2018-04-22T12:40:48.208Z,6.93
2018-04-22T12:43:14.929Z,7.50
2018-04-22T12:45:41.688Z,6.77
2018-04-22T12:48:08.396Z,7.40
2018-04-22T12:50:35.120Z,6.33
2018-04-22T12:53:01.890Z,6.63
2018-04-22T12:55:28.609Z,6.40
2018-04-22T12:57:55.313Z,6.10
2018-04-22T13:00:22.043Z,7.47
2018-04-22T13:02:48.747Z,30.57
2018-04-22T13:05:15.487Z,8.60
2018-04-22T13:07:42.201Z,6.90
2018-04-22T13:10:08.904Z,6.20
2018-04-22T13:12:35.604Z,6.47
2018-04-22T13:15:02.330Z,8.20
2018-04-22T13:17:29.021Z,6.80
2018-04-22T13:19:55.717Z,6.67
2018-04-22T13:22:22.452Z,6.00
2018-04-22T13:24:49.172Z,6.33
2018-04-22T13:27:15.907Z,6.50
2018-04-22T13:29:42.648Z,6.00
2018-04-22T13:32:09.356Z,6.20
2018-04-22T13:34:36.125Z,6.63
2018-04-22T13:37:02.840Z,6.30
2018-04-22T13:39:29.611Z,6.63
2018-04-22T13:41:56.324Z,6.27
2018-04-22T13:44:23.020Z,6.47
2018-04-22T13:46:49.762Z,5.90
2018-04-22T13:49:16.459Z,6.20
2018-04-22T13:51:43.177Z,6.03
2018-04-22T13:54:09.904Z,5.70
2018-04-22T13:56:36.600Z,6.20
2018-04-22T13:59:03.298Z,5.30
2018-04-22T14:01:30.051Z,6.20
2018-04-22T14:03:56.753Z,6.90
2018-04-22T14:06:23.462Z,6.50
2018-04-22T14:08:50.199Z,6.27
2018-04-22T14:11:16.920Z,6.30
2018-04-22T14:13:43.689Z,6.63
2018-04-22T14:16:10.416Z,6.03
2018-04-22T14:18:37.122Z,6.07
2018-04-22T14:21:03.822Z,6.50
2018-04-22T14:23:30.542Z,6.60
2018-04-22T14:25:57.296Z,5.47
2018-04-22T14:28:24.014Z,5.93
2018-04-22T14:30:50.761Z,6.37
2018-04-22T14:33:17.472Z,6.53
2018-04-22T14:35:44.209Z,6.20
2018-04-22T14:38:10.942Z,6.33
2018-04-22T14:40:37.662Z,6.10
2018-04-22T14:43:04.400Z,5.90
2018-04-22T14:45:37.102Z,6.10
2018-04-22T14:48:03.816Z,5.77
2018-04-22T14:50:30.570Z,6.17
2018-04-22T14:52:57.279Z,5.83
2018-04-22T14:55:23.996Z,6.50
2018-04-22T14:57:50.749Z,6.20
2018-04-22T15:00:17.456Z,5.80
2018-04-22T15:02:44.193Z,5.83
2018-04-22T15:05:10.941Z,5.70
2018-04-22T15:07:37.684Z,5.90
2018-04-22T15:10:04.413Z,6.10
2018-04-22T15:12:31.162Z,6.47
2018-04-22T15:14:57.870Z,6.20
2018-04-22T15:17:24.605Z,5.73
2018-04-22T15:19:51.336Z,5.60
2018-04-22T15:22:18.045Z,6.33
2018-04-22T15:24:44.872Z,6.10
2018-04-22T15:27:11.576Z,6.43
2018-04-22T15:29:38.331Z,6.13
2018-04-22T15:32:05.048Z,5.70
2018-04-22T15:34:31.774Z,6.50
2018-04-22T15:36:58.519Z,6.27
2018-04-22T15:39:25.247Z,6.07
2018-04-22T15:41:51.997Z,5.90
2018-04-22T15:44:18.708Z,6.20
2018-04-22T15:46:45.441Z,5.50
2018-04-22T15:49:12.180Z,5.83
2018-04-22T15:51:38.935Z,6.30
2018-04-22T15:54:05.708Z,5.53
2018-04-22T15:56:32.451Z,6.80
2018-04-22T15:58:59.169Z,5.93
2018-04-22T16:01:25.942Z,6.50
2018-04-22T16:03:52.649Z,6.60
2018-04-22T16:06:19.377Z,6.17
2018-04-22T16:08:46.133Z,6.43
2018-04-22T16:11:12.838Z,6.10
2018-04-22T16:13:39.550Z,6.37
2018-04-22T16:16:06.290Z,6.60
2018-04-22T16:18:32.996Z,6.20
2018-04-22T16:20:59.697Z,6.60
2018-04-22T16:23:26.425Z,6.50
2018-04-22T16:25:53.144Z,6.80
2018-04-22T16:28:19.847Z,6.50
2018-04-22T16:30:46.565Z,6.40
2018-04-22T16:33:13.269Z,6.40
2018-04-22T16:35:39.974Z,6.43
2018-04-22T16:38:06.715Z,6.43
2018-04-22T16:40:33.459Z,6.80
2018-04-22T16:43:00.167Z,7.17
2018-04-22T16:45:26.907Z,6.50
2018-04-22T16:47:53.625Z,7.57
2018-04-22T16:50:20.351Z,6.63
2018-04-22T16:52:47.092Z,6.73
2018-04-22T16:55:13.797Z,6.53
2018-04-22T16:57:40.508Z,6.30
2018-04-22T17:00:07.258Z,6.80
2018-04-22T17:02:33.979Z,7.07
2018-04-22T17:05:00.759Z,8.13
2018-04-22T17:07:27.489Z,6.67
2018-04-22T17:09:54.209Z,6.30
2018-04-22T17:12:20.936Z,6.47
2018-04-22T17:14:47.650Z,6.90
2018-04-22T17:17:14.349Z,7.13
2018-04-22T17:19:41.098Z,7.60
2018-04-22T17:22:07.821Z,6.73
2018-04-22T17:24:34.536Z,6.70
2018-04-22T17:27:01.277Z,7.53
2018-04-22T17:29:27.981Z,6.30
2018-04-22T17:31:54.699Z,7.30
2018-04-22T17:34:21.442Z,6.10
2018-04-22T17:36:48.153Z,6.80
2018-04-22T17:39:14.879Z,6.47
2018-04-22T17:41:41.649Z,6.57
2018-04-22T17:44:09.605Z,6.77
2018-04-22T17:46:36.352Z,7.10
2018-04-22T17:49:03.093Z,7.33
2018-04-22T17:51:29.812Z,6.97
2018-04-22T17:53:56.565Z,7.30
2018-04-22T17:56:23.337Z,7.40
2018-04-22T17:58:50.046Z,6.87
2018-04-22T18:01:16.793Z,6.57
2018-04-22T18:03:43.499Z,6.50
2018-04-22T18:06:10.202Z,7.40
2018-04-22T18:08:36.941Z,7.20
2018-04-22T18:11:03.685Z,6.97
2018-04-22T18:13:30.396Z,6.73
2018-04-22T18:15:57.133Z,7.33
2018-04-22T18:18:23.863Z,6.20
2018-04-22T18:20:50.573Z,7.10
2018-04-22T18:23:17.446Z,7.70
2018-04-22T18:25:44.156Z,7.00
2018-04-22T18:28:10.859Z,7.40
2018-04-22T18:30:37.582Z,8.77
2018-04-22T18:33:04.337Z,8.67
2018-04-22T18:35:31.088Z,9.10
2018-04-22T18:37:57.923Z,9.20
2018-04-22T18:40:24.642Z,9.67
2018-04-22T18:42:51.411Z,9.13
2018-04-22T18:45:18.195Z,9.90
2018-04-22T18:47:44.944Z,8.80
2018-04-22T18:50:11.666Z,9.50
2018-04-22T18:52:38.400Z,9.10
2018-04-22T18:55:05.158Z,9.13
2018-04-22T18:57:31.897Z,9.20
2018-04-22T18:59:58.651Z,9.73
2018-04-22T19:02:25.446Z,9.53
2018-04-22T19:04:52.182Z,9.63
2018-04-22T19:07:18.933Z,10.10
2018-04-22T19:09:45.668Z,8.93
2018-04-22T19:12:12.424Z,10.27
2018-04-22T19:14:39.160Z,8.70
2018-04-22T19:17:05.948Z,9.07
2018-04-22T19:19:32.710Z,9.30
2018-04-22T19:21:59.473Z,8.17
2018-04-22T19:24:26.181Z,8.10
2018-04-22T19:26:52.901Z,7.90
2018-04-22T19:29:19.650Z,8.00
2018-04-22T19:31:46.350Z,8.63
2018-04-22T19:34:13.050Z,8.10
2018-04-22T19:36:39.848Z,8.10
2018-04-22T19:39:06.556Z,8.10
2018-04-22T19:41:33.303Z,7.80
2018-04-22T19:44:00.068Z,8.03
2018-04-22T19:46:26.819Z,7.90
2018-04-22T19:48:53.568Z,7.90
2018-04-22T19:51:20.320Z,7.83
2018-04-22T19:53:47.050Z,7.60
2018-04-22T19:56:13.800Z,8.17
2018-04-22T19:58:40.558Z,8.07
2018-04-22T20:01:07.286Z,8.33
2018-04-22T20:03:34.169Z,8.10
2018-04-22T20:06:00.877Z,8.27
2018-04-22T20:08:27.647Z,8.33
2018-04-22T20:10:54.399Z,8.47
2018-04-22T20:13:21.183Z,7.80
2018-04-22T20:15:47.903Z,8.10
2018-04-22T20:18:14.664Z,7.87
2018-04-22T20:20:41.410Z,8.60
2018-04-22T20:23:08.429Z,8.60
2018-04-22T20:25:35.162Z,8.10
2018-04-22T20:28:01.925Z,8.80
2018-04-22T20:30:28.669Z,8.20
2018-04-22T20:32:55.562Z,10.13
2018-04-22T20:35:22.345Z,8.63
2018-04-22T20:37:49.098Z,8.30
2018-04-22T20:40:15.820Z,9.43
2018-04-22T20:42:42.614Z,9.70
2018-04-22T20:45:09.341Z,9.73
2018-04-22T20:47:36.145Z,10.70
2018-04-22T20:50:02.863Z,8.60
2018-04-22T20:52:29.638Z,9.83
2018-04-22T20:54:56.369Z,9.03
2018-04-22T20:57:23.083Z,9.30
2018-04-22T20:59:49.895Z,10.00
2018-04-22T21:02:16.643Z,9.27
2018-04-22T21:04:43.349Z,9.73
2018-04-22T21:07:10.137Z,10.40
2018-04-22T21:09:36.896Z,8.93
2018-04-22T21:12:03.632Z,10.43
2018-04-22T21:14:30.354Z,8.73
2018-04-22T21:16:57.104Z,9.90
2018-04-22T21:19:23.847Z,10.90
2018-04-22T21:21:50.571Z,9.80
2018-04-22T21:24:17.321Z,10.00
2018-04-22T21:26:44.145Z,10.17
2018-04-22T21:29:10.870Z,10.77
2018-04-22T21:31:37.661Z,10.07
2018-04-22T21:34:04.421Z,9.53
2018-04-22T21:36:31.133Z,10.57
2018-04-22T21:38:57.849Z,10.73
2018-04-22T21:41:24.598Z,11.23
2018-04-22T21:43:51.327Z,10.10
2018-04-22T21:46:18.144Z,10.80
2018-04-22T21:48:44.883Z,9.87
2018-04-22T21:51:11.647Z,11.40
2018-04-22T21:53:38.403Z,11.00
2018-04-22T21:56:05.183Z,9.90
2018-04-22T21:58:31.892Z,11.20
2018-04-22T22:00:58.620Z,10.37
2018-04-22T22:03:25.319Z,10.90
2018-04-22T22:05:52.065Z,10.40
2018-04-22T22:08:18.832Z,11.50
2018-04-22T22:10:45.554Z,10.30
2018-04-22T22:13:12.498Z,10.60
2018-04-22T22:15:39.217Z,9.67
2018-04-22T22:18:05.949Z,11.90
2018-04-22T22:20:32.696Z,9.47
2018-04-22T22:22:59.406Z,11.13
2018-04-22T22:25:26.167Z,10.60
2018-04-22T22:27:52.967Z,10.40
2018-04-22T22:30:19.695Z,9.70
2018-04-22T22:32:46.420Z,11.33
2018-04-22T22:35:13.167Z,10.67
2018-04-22T22:37:39.893Z,11.70
2018-04-22T22:40:06.641Z,10.80
2018-04-22T22:42:33.377Z,10.90
2018-04-22T22:45:00.096Z,10.70
2018-04-22T22:47:26.912Z,10.80
2018-04-22T22:49:53.709Z,11.37
2018-04-22T22:52:20.420Z,10.80
2018-04-22T22:54:47.174Z,11.20
2018-04-22T22:57:13.877Z,10.10
2018-04-22T22:59:40.583Z,11.80
2018-04-22T23:02:07.320Z,10.63
2018-04-22T23:04:34.054Z,10.70
2018-04-22T23:07:00.780Z,10.70
2018-04-22T23:09:27.498Z,11.60
2018-04-22T23:11:54.237Z,11.33
2018-04-22T23:14:20.957Z,11.10
2018-04-22T23:16:47.677Z,10.70
2018-04-22T23:19:14.418Z,11.40
2018-04-22T23:21:41.160Z,10.60
2018-04-22T23:24:07.899Z,11.53
2018-04-22T23:26:34.654Z,11.10
2018-04-22T23:29:02.310Z,11.47
2018-04-22T23:31:29.030Z,10.97
2018-04-22T23:33:55.789Z,11.30
2018-04-22T23:36:22.503Z,11.20
2018-04-22T23:38:49.236Z,11.10
2018-04-22T23:41:15.961Z,11.50
2018-04-22T23:43:42.672Z,10.63
2018-04-22T23:46:09.441Z,12.07
2018-04-22T23:48:36.190Z,11.00
2018-04-22T23:51:02.926Z,11.73
2018-04-22T23:53:29.651Z,11.87
2018-04-22T23:55:56.406Z,10.70
2018-04-22T23:58:23.114Z,11.07
